sensor_id;sensor_type;location;lat;lon;timestamp;P1;durP1;ratioP1;P2;durP2;ratioP2
52508;SDS011;38420;53.150;6.370;2023-08-30T00:00:19;36.58;;;27.80;;
52508;SDS011;38420;53.150;6.370;2023-08-30T00:02:48;41.35;;;29.55;;
52508;SDS011;38420;53.150;6.370;2023-08-30T00:05:13;34.92;;;27.75;;
52508;SDS011;38420;53.150;6.370;2023-08-30T00:07:39;36.75;;;29.05;;
52508;SDS011;38420;53.150;6.370;2023-08-30T00:10:08;39.13;;;27.95;;
52508;SDS011;38420;53.150;6.370;2023-08-30T00:12:35;34.67;;;28.17;;
52508;SDS011;38420;53.150;6.370;2023-08-30T00:15:01;34.90;;;27.88;;
52508;SDS011;38420;53.150;6.370;2023-08-30T00:17:27;37.72;;;27.90;;
52508;SDS011;38420;53.150;6.370;2023-08-30T00:19:52;37.35;;;28.17;;
52508;SDS011;38420;53.150;6.370;2023-08-30T00:22:20;31.00;;;25.88;;
52508;SDS011;38420;53.150;6.370;2023-08-30T00:24:46;34.75;;;27.48;;
52508;SDS011;38420;53.150;6.370;2023-08-30T00:27:12;34.40;;;26.38;;
52508;SDS011;38420;53.150;6.370;2023-08-30T00:29:38;34.88;;;25.95;;
52508;SDS011;38420;53.150;6.370;2023-08-30T00:32:03;34.30;;;26.23;;
52508;SDS011;38420;53.150;6.370;2023-08-30T00:34:29;36.10;;;27.42;;
52508;SDS011;38420;53.150;6.370;2023-08-30T00:36:55;32.10;;;25.33;;
52508;SDS011;38420;53.150;6.370;2023-08-30T00:39:20;34.53;;;24.88;;
52508;SDS011;38420;53.150;6.370;2023-08-30T00:41:46;30.27;;;24.05;;
52508;SDS011;38420;53.150;6.370;2023-08-30T00:44:12;31.50;;;25.10;;
52508;SDS011;38420;53.150;6.370;2023-08-30T00:46:38;32.33;;;23.70;;
52508;SDS011;38420;53.150;6.370;2023-08-30T00:49:04;31.23;;;24.45;;
52508;SDS011;38420;53.150;6.370;2023-08-30T00:51:30;30.85;;;25.08;;
52508;SDS011;38420;53.150;6.370;2023-08-30T00:53:57;31.48;;;23.83;;
52508;SDS011;38420;53.150;6.370;2023-08-30T00:56:24;29.70;;;22.92;;
52508;SDS011;38420;53.150;6.370;2023-08-30T00:58:52;31.55;;;25.05;;
52508;SDS011;38420;53.150;6.370;2023-08-30T01:01:18;31.55;;;22.42;;
52508;SDS011;38420;53.150;6.370;2023-08-30T01:03:45;31.00;;;24.88;;
52508;SDS011;38420;53.150;6.370;2023-08-30T01:06:11;31.25;;;24.25;;
52508;SDS011;38420;53.150;6.370;2023-08-30T01:08:38;27.77;;;22.98;;
52508;SDS011;38420;53.150;6.370;2023-08-30T01:11:08;32.95;;;23.20;;
52508;SDS011;38420;53.150;6.370;2023-08-30T01:13:39;30.20;;;23.75;;
52508;SDS011;38420;53.150;6.370;2023-08-30T01:16:09;31.70;;;23.88;;
52508;SDS011;38420;53.150;6.370;2023-08-30T01:18:36;32.15;;;23.75;;
52508;SDS011;38420;53.150;6.370;2023-08-30T01:21:05;28.38;;;21.90;;
52508;SDS011;38420;53.150;6.370;2023-08-30T01:23:47;26.48;;;20.90;;
52508;SDS011;38420;53.150;6.370;2023-08-30T01:26:36;30.13;;;22.77;;
52508;SDS011;38420;53.150;6.370;2023-08-30T01:29:10;26.77;;;21.95;;
52508;SDS011;38420;53.150;6.370;2023-08-30T01:31:37;32.28;;;21.83;;
52508;SDS011;38420;53.150;6.370;2023-08-30T01:34:05;28.73;;;20.48;;
52508;SDS011;38420;53.150;6.370;2023-08-30T01:36:31;26.80;;;20.58;;
52508;SDS011;38420;53.150;6.370;2023-08-30T01:38:57;30.00;;;21.90;;
52508;SDS011;38420;53.150;6.370;2023-08-30T01:41:25;27.92;;;21.05;;
52508;SDS011;38420;53.150;6.370;2023-08-30T01:43:52;29.38;;;21.90;;
52508;SDS011;38420;53.150;6.370;2023-08-30T01:46:20;31.73;;;22.42;;
52508;SDS011;38420;53.150;6.370;2023-08-30T01:48:47;30.30;;;21.98;;
52508;SDS011;38420;53.150;6.370;2023-08-30T01:51:14;29.88;;;21.65;;
52508;SDS011;38420;53.150;6.370;2023-08-30T01:53:42;28.45;;;22.25;;
52508;SDS011;38420;53.150;6.370;2023-08-30T01:56:09;28.23;;;19.13;;
52508;SDS011;38420;53.150;6.370;2023-08-30T01:58:35;30.85;;;22.55;;
52508;SDS011;38420;53.150;6.370;2023-08-30T02:01:01;32.97;;;23.60;;
52508;SDS011;38420;53.150;6.370;2023-08-30T02:03:26;34.10;;;22.90;;
52508;SDS011;38420;53.150;6.370;2023-08-30T02:08:40;30.52;;;22.73;;
52508;SDS011;38420;53.150;6.370;2023-08-30T02:11:13;29.67;;;21.80;;
52508;SDS011;38420;53.150;6.370;2023-08-30T02:13:43;26.42;;;20.27;;
52508;SDS011;38420;53.150;6.370;2023-08-30T02:16:11;31.25;;;23.08;;
52508;SDS011;38420;53.150;6.370;2023-08-30T02:18:38;31.08;;;22.45;;
52508;SDS011;38420;53.150;6.370;2023-08-30T02:21:05;28.83;;;21.40;;
52508;SDS011;38420;53.150;6.370;2023-08-30T02:23:30;27.60;;;21.73;;
52508;SDS011;38420;53.150;6.370;2023-08-30T02:25:56;28.92;;;21.40;;
52508;SDS011;38420;53.150;6.370;2023-08-30T02:28:22;32.72;;;22.08;;
52508;SDS011;38420;53.150;6.370;2023-08-30T02:30:47;27.20;;;20.70;;
52508;SDS011;38420;53.150;6.370;2023-08-30T02:33:13;29.65;;;22.02;;
52508;SDS011;38420;53.150;6.370;2023-08-30T02:35:39;28.20;;;20.70;;
52508;SDS011;38420;53.150;6.370;2023-08-30T02:38:04;28.13;;;19.88;;
52508;SDS011;38420;53.150;6.370;2023-08-30T02:40:30;29.20;;;21.23;;
52508;SDS011;38420;53.150;6.370;2023-08-30T02:42:57;29.35;;;20.23;;
52508;SDS011;38420;53.150;6.370;2023-08-30T02:45:22;27.88;;;20.67;;
52508;SDS011;38420;53.150;6.370;2023-08-30T02:47:48;27.48;;;20.33;;
52508;SDS011;38420;53.150;6.370;2023-08-30T02:50:13;30.05;;;21.58;;
52508;SDS011;38420;53.150;6.370;2023-08-30T02:52:39;25.25;;;19.45;;
52508;SDS011;38420;53.150;6.370;2023-08-30T02:55:05;27.08;;;20.58;;
52508;SDS011;38420;53.150;6.370;2023-08-30T02:57:31;25.38;;;18.40;;
52508;SDS011;38420;53.150;6.370;2023-08-30T02:59:57;26.42;;;20.15;;
52508;SDS011;38420;53.150;6.370;2023-08-30T03:02:22;25.70;;;19.02;;
52508;SDS011;38420;53.150;6.370;2023-08-30T03:04:48;30.35;;;19.23;;
52508;SDS011;38420;53.150;6.370;2023-08-30T03:07:13;26.10;;;19.40;;
52508;SDS011;38420;53.150;6.370;2023-08-30T03:09:39;25.75;;;18.05;;
52508;SDS011;38420;53.150;6.370;2023-08-30T03:12:06;26.77;;;20.13;;
52508;SDS011;38420;53.150;6.370;2023-08-30T03:14:31;26.45;;;18.40;;
52508;SDS011;38420;53.150;6.370;2023-08-30T03:16:57;24.70;;;18.80;;
52508;SDS011;38420;53.150;6.370;2023-08-30T03:19:22;22.10;;;18.10;;
52508;SDS011;38420;53.150;6.370;2023-08-30T03:21:48;25.60;;;18.60;;
52508;SDS011;38420;53.150;6.370;2023-08-30T03:24:14;27.90;;;18.42;;
52508;SDS011;38420;53.150;6.370;2023-08-30T03:26:42;24.60;;;18.95;;
52508;SDS011;38420;53.150;6.370;2023-08-30T03:29:08;25.75;;;18.65;;
52508;SDS011;38420;53.150;6.370;2023-08-30T03:31:34;27.77;;;20.13;;
52508;SDS011;38420;53.150;6.370;2023-08-30T03:34:00;27.00;;;19.17;;
52508;SDS011;38420;53.150;6.370;2023-08-30T03:36:25;26.25;;;18.50;;
52508;SDS011;38420;53.150;6.370;2023-08-30T03:38:51;26.23;;;18.65;;
52508;SDS011;38420;53.150;6.370;2023-08-30T03:41:17;26.88;;;19.52;;
52508;SDS011;38420;53.150;6.370;2023-08-30T03:43:43;28.08;;;19.90;;
52508;SDS011;38420;53.150;6.370;2023-08-30T03:46:09;26.45;;;19.88;;
52508;SDS011;38420;53.150;6.370;2023-08-30T03:48:36;26.95;;;18.60;;
52508;SDS011;38420;53.150;6.370;2023-08-30T03:51:02;25.73;;;19.13;;
52508;SDS011;38420;53.150;6.370;2023-08-30T03:53:28;22.55;;;18.08;;
52508;SDS011;38420;53.150;6.370;2023-08-30T03:55:55;25.90;;;19.92;;
52508;SDS011;38420;53.150;6.370;2023-08-30T03:58:20;22.25;;;17.27;;
52508;SDS011;38420;53.150;6.370;2023-08-30T04:00:46;26.17;;;19.40;;
52508;SDS011;38420;53.150;6.370;2023-08-30T04:03:12;26.42;;;19.05;;
52508;SDS011;38420;53.150;6.370;2023-08-30T04:05:39;24.60;;;17.85;;
52508;SDS011;38420;53.150;6.370;2023-08-30T04:08:05;24.67;;;18.83;;
52508;SDS011;38420;53.150;6.370;2023-08-30T04:10:38;23.77;;;18.00;;
52508;SDS011;38420;53.150;6.370;2023-08-30T04:13:05;25.15;;;19.25;;
52508;SDS011;38420;53.150;6.370;2023-08-30T04:15:32;28.58;;;19.10;;
52508;SDS011;38420;53.150;6.370;2023-08-30T04:17:59;26.05;;;18.88;;
52508;SDS011;38420;53.150;6.370;2023-08-30T04:20:24;26.02;;;18.88;;
52508;SDS011;38420;53.150;6.370;2023-08-30T04:22:50;26.73;;;20.45;;
52508;SDS011;38420;53.150;6.370;2023-08-30T04:25:16;24.45;;;17.67;;
52508;SDS011;38420;53.150;6.370;2023-08-30T04:27:41;24.05;;;18.02;;
52508;SDS011;38420;53.150;6.370;2023-08-30T04:30:07;26.10;;;18.65;;
52508;SDS011;38420;53.150;6.370;2023-08-30T04:32:35;26.63;;;19.38;;
52508;SDS011;38420;53.150;6.370;2023-08-30T04:35:00;24.58;;;18.25;;
52508;SDS011;38420;53.150;6.370;2023-08-30T04:37:29;26.58;;;18.85;;
52508;SDS011;38420;53.150;6.370;2023-08-30T04:39:55;22.60;;;17.40;;
52508;SDS011;38420;53.150;6.370;2023-08-30T04:42:20;23.83;;;17.48;;
52508;SDS011;38420;53.150;6.370;2023-08-30T04:44:46;26.77;;;19.05;;
52508;SDS011;38420;53.150;6.370;2023-08-30T04:47:12;24.85;;;17.10;;
52508;SDS011;38420;53.150;6.370;2023-08-30T04:49:37;28.38;;;17.63;;
52508;SDS011;38420;53.150;6.370;2023-08-30T04:52:03;26.17;;;17.00;;
52508;SDS011;38420;53.150;6.370;2023-08-30T04:54:29;23.00;;;18.02;;
52508;SDS011;38420;53.150;6.370;2023-08-30T04:56:55;22.88;;;17.73;;
52508;SDS011;38420;53.150;6.370;2023-08-30T04:59:21;22.27;;;17.45;;
52508;SDS011;38420;53.150;6.370;2023-08-30T05:01:46;25.27;;;16.88;;
52508;SDS011;38420;53.150;6.370;2023-08-30T05:04:12;23.77;;;17.48;;
52508;SDS011;38420;53.150;6.370;2023-08-30T05:06:38;24.25;;;17.38;;
52508;SDS011;38420;53.150;6.370;2023-08-30T05:09:03;23.48;;;17.52;;
52508;SDS011;38420;53.150;6.370;2023-08-30T05:11:29;25.02;;;16.85;;
52508;SDS011;38420;53.150;6.370;2023-08-30T05:13:55;23.73;;;16.25;;
52508;SDS011;38420;53.150;6.370;2023-08-30T05:16:20;22.15;;;16.42;;
52508;SDS011;38420;53.150;6.370;2023-08-30T05:18:46;25.33;;;16.23;;
52508;SDS011;38420;53.150;6.370;2023-08-30T05:21:15;23.92;;;15.82;;
52508;SDS011;38420;53.150;6.370;2023-08-30T05:23:40;24.55;;;16.85;;
52508;SDS011;38420;53.150;6.370;2023-08-30T05:26:10;24.90;;;17.05;;
52508;SDS011;38420;53.150;6.370;2023-08-30T05:28:39;23.02;;;16.75;;
52508;SDS011;38420;53.150;6.370;2023-08-30T05:31:05;24.05;;;14.82;;
52508;SDS011;38420;53.150;6.370;2023-08-30T05:33:31;20.08;;;15.52;;
52508;SDS011;38420;53.150;6.370;2023-08-30T05:35:56;21.30;;;15.57;;
52508;SDS011;38420;53.150;6.370;2023-08-30T05:38:22;21.98;;;14.43;;
52508;SDS011;38420;53.150;6.370;2023-08-30T05:40:48;19.90;;;14.90;;
52508;SDS011;38420;53.150;6.370;2023-08-30T05:43:13;18.65;;;13.65;;
52508;SDS011;38420;53.150;6.370;2023-08-30T05:45:41;20.13;;;15.07;;
52508;SDS011;38420;53.150;6.370;2023-08-30T05:48:06;19.65;;;13.40;;
52508;SDS011;38420;53.150;6.370;2023-08-30T05:50:32;24.92;;;14.15;;
52508;SDS011;38420;53.150;6.370;2023-08-30T05:52:57;19.55;;;13.10;;
52508;SDS011;38420;53.150;6.370;2023-08-30T05:55:23;20.50;;;15.27;;
52508;SDS011;38420;53.150;6.370;2023-08-30T05:57:49;20.58;;;13.23;;
52508;SDS011;38420;53.150;6.370;2023-08-30T06:00:14;19.08;;;13.60;;
52508;SDS011;38420;53.150;6.370;2023-08-30T06:02:40;19.40;;;14.32;;
52508;SDS011;38420;53.150;6.370;2023-08-30T06:05:06;17.70;;;13.27;;
52508;SDS011;38420;53.150;6.370;2023-08-30T06:07:32;17.88;;;13.05;;
52508;SDS011;38420;53.150;6.370;2023-08-30T06:09:58;19.70;;;13.73;;
52508;SDS011;38420;53.150;6.370;2023-08-30T06:12:24;18.67;;;12.85;;
52508;SDS011;38420;53.150;6.370;2023-08-30T06:14:50;16.70;;;11.98;;
52508;SDS011;38420;53.150;6.370;2023-08-30T06:17:19;19.42;;;13.02;;
52508;SDS011;38420;53.150;6.370;2023-08-30T06:19:45;15.73;;;12.50;;
52508;SDS011;38420;53.150;6.370;2023-08-30T06:22:11;18.20;;;13.02;;
52508;SDS011;38420;53.150;6.370;2023-08-30T06:24:37;17.13;;;12.70;;
52508;SDS011;38420;53.150;6.370;2023-08-30T06:27:03;15.90;;;12.82;;
52508;SDS011;38420;53.150;6.370;2023-08-30T06:29:29;23.05;;;13.23;;
52508;SDS011;38420;53.150;6.370;2023-08-30T06:31:54;20.13;;;12.55;;
52508;SDS011;38420;53.150;6.370;2023-08-30T06:34:20;18.40;;;12.93;;
52508;SDS011;38420;53.150;6.370;2023-08-30T06:36:46;18.58;;;12.63;;
52508;SDS011;38420;53.150;6.370;2023-08-30T06:39:12;17.08;;;11.95;;
52508;SDS011;38420;53.150;6.370;2023-08-30T06:41:37;17.95;;;12.55;;
52508;SDS011;38420;53.150;6.370;2023-08-30T06:44:03;17.85;;;12.82;;
52508;SDS011;38420;53.150;6.370;2023-08-30T06:46:29;18.10;;;12.38;;
52508;SDS011;38420;53.150;6.370;2023-08-30T06:48:54;15.95;;;11.75;;
52508;SDS011;38420;53.150;6.370;2023-08-30T06:51:20;16.55;;;12.25;;
52508;SDS011;38420;53.150;6.370;2023-08-30T06:53:46;18.50;;;11.93;;
52508;SDS011;38420;53.150;6.370;2023-08-30T06:56:12;16.73;;;11.38;;
52508;SDS011;38420;53.150;6.370;2023-08-30T06:58:38;16.98;;;11.55;;
52508;SDS011;38420;53.150;6.370;2023-08-30T07:01:03;15.00;;;11.13;;
52508;SDS011;38420;53.150;6.370;2023-08-30T07:03:29;16.77;;;12.07;;
52508;SDS011;38420;53.150;6.370;2023-08-30T07:05:55;17.73;;;12.20;;
52508;SDS011;38420;53.150;6.370;2023-08-30T07:08:20;16.52;;;12.15;;
52508;SDS011;38420;53.150;6.370;2023-08-30T07:10:46;14.57;;;11.55;;
52508;SDS011;38420;53.150;6.370;2023-08-30T07:13:12;14.68;;;11.40;;
52508;SDS011;38420;53.150;6.370;2023-08-30T07:15:38;18.33;;;12.35;;
52508;SDS011;38420;53.150;6.370;2023-08-30T07:18:05;17.42;;;11.80;;
52508;SDS011;38420;53.150;6.370;2023-08-30T07:20:31;16.15;;;11.50;;
52508;SDS011;38420;53.150;6.370;2023-08-30T07:22:57;19.10;;;12.15;;
52508;SDS011;38420;53.150;6.370;2023-08-30T07:25:22;16.48;;;10.77;;
52508;SDS011;38420;53.150;6.370;2023-08-30T07:27:49;17.17;;;11.70;;
52508;SDS011;38420;53.150;6.370;2023-08-30T07:30:14;19.15;;;11.23;;
52508;SDS011;38420;53.150;6.370;2023-08-30T07:32:40;17.00;;;10.98;;
52508;SDS011;38420;53.150;6.370;2023-08-30T07:35:06;14.10;;;9.95;;
52508;SDS011;38420;53.150;6.370;2023-08-30T07:37:33;14.68;;;10.30;;
52508;SDS011;38420;53.150;6.370;2023-08-30T07:39:59;16.20;;;9.80;;
52508;SDS011;38420;53.150;6.370;2023-08-30T07:42:25;14.48;;;9.52;;
52508;SDS011;38420;53.150;6.370;2023-08-30T07:44:51;13.30;;;9.13;;
52508;SDS011;38420;53.150;6.370;2023-08-30T07:47:16;15.48;;;9.63;;
52508;SDS011;38420;53.150;6.370;2023-08-30T07:49:42;13.95;;;9.05;;
52508;SDS011;38420;53.150;6.370;2023-08-30T07:52:08;16.25;;;9.57;;
52508;SDS011;38420;53.150;6.370;2023-08-30T07:54:36;12.57;;;9.48;;
52508;SDS011;38420;53.150;6.370;2023-08-30T07:57:02;13.75;;;8.90;;
52508;SDS011;38420;53.150;6.370;2023-08-30T07:59:29;13.65;;;9.93;;
52508;SDS011;38420;53.150;6.370;2023-08-30T08:01:54;15.52;;;10.00;;
52508;SDS011;38420;53.150;6.370;2023-08-30T08:04:20;15.38;;;10.65;;
52508;SDS011;38420;53.150;6.370;2023-08-30T08:06:47;16.48;;;10.27;;
52508;SDS011;38420;53.150;6.370;2023-08-30T08:09:12;13.85;;;10.40;;
52508;SDS011;38420;53.150;6.370;2023-08-30T08:11:38;14.23;;;11.07;;
52508;SDS011;38420;53.150;6.370;2023-08-30T08:14:08;16.45;;;10.45;;
52508;SDS011;38420;53.150;6.370;2023-08-30T08:16:37;15.85;;;11.20;;
52508;SDS011;38420;53.150;6.370;2023-08-30T08:19:03;17.67;;;11.38;;
52508;SDS011;38420;53.150;6.370;2023-08-30T08:21:29;14.48;;;10.38;;
52508;SDS011;38420;53.150;6.370;2023-08-30T08:23:54;16.35;;;10.35;;
52508;SDS011;38420;53.150;6.370;2023-08-30T08:26:20;13.27;;;9.68;;
52508;SDS011;38420;53.150;6.370;2023-08-30T08:28:46;13.27;;;9.77;;
52508;SDS011;38420;53.150;6.370;2023-08-30T08:31:11;14.50;;;10.18;;
52508;SDS011;38420;53.150;6.370;2023-08-30T08:33:37;13.82;;;9.88;;
52508;SDS011;38420;53.150;6.370;2023-08-30T08:36:03;15.20;;;10.68;;
52508;SDS011;38420;53.150;6.370;2023-08-30T08:38:28;15.13;;;9.80;;
52508;SDS011;38420;53.150;6.370;2023-08-30T08:41:00;14.85;;;9.82;;
52508;SDS011;38420;53.150;6.370;2023-08-30T08:43:30;13.43;;;9.43;;
52508;SDS011;38420;53.150;6.370;2023-08-30T08:46:01;15.30;;;10.15;;
52508;SDS011;38420;53.150;6.370;2023-08-30T08:48:28;15.48;;;9.88;;
52508;SDS011;38420;53.150;6.370;2023-08-30T08:50:56;13.50;;;9.57;;
52508;SDS011;38420;53.150;6.370;2023-08-30T08:53:22;14.93;;;9.82;;
52508;SDS011;38420;53.150;6.370;2023-08-30T08:55:48;17.40;;;10.73;;
52508;SDS011;38420;53.150;6.370;2023-08-30T08:58:15;15.13;;;9.48;;
52508;SDS011;38420;53.150;6.370;2023-08-30T09:00:43;15.55;;;10.13;;
52508;SDS011;38420;53.150;6.370;2023-08-30T09:03:10;14.48;;;9.20;;
52508;SDS011;38420;53.150;6.370;2023-08-30T09:05:39;13.65;;;9.52;;
52508;SDS011;38420;53.150;6.370;2023-08-30T09:08:06;16.45;;;10.38;;
52508;SDS011;38420;53.150;6.370;2023-08-30T09:10:32;14.52;;;9.65;;
52508;SDS011;38420;53.150;6.370;2023-08-30T09:12:58;13.43;;;10.13;;
52508;SDS011;38420;53.150;6.370;2023-08-30T09:15:33;15.85;;;9.98;;
52508;SDS011;38420;53.150;6.370;2023-08-30T09:18:02;12.07;;;8.77;;
52508;SDS011;38420;53.150;6.370;2023-08-30T09:20:28;11.98;;;8.57;;
52508;SDS011;38420;53.150;6.370;2023-08-30T09:22:53;12.80;;;8.65;;
52508;SDS011;38420;53.150;6.370;2023-08-30T09:25:23;13.05;;;9.18;;
52508;SDS011;38420;53.150;6.370;2023-08-30T09:27:59;13.57;;;9.60;;
52508;SDS011;38420;53.150;6.370;2023-08-30T09:30:25;15.45;;;9.90;;
52508;SDS011;38420;53.150;6.370;2023-08-30T09:32:51;16.40;;;9.70;;
52508;SDS011;38420;53.150;6.370;2023-08-30T09:35:17;12.73;;;9.70;;
52508;SDS011;38420;53.150;6.370;2023-08-30T09:37:46;14.77;;;9.45;;
52508;SDS011;38420;53.150;6.370;2023-08-30T09:40:11;15.63;;;9.45;;
52508;SDS011;38420;53.150;6.370;2023-08-30T09:42:43;14.48;;;9.25;;
52508;SDS011;38420;53.150;6.370;2023-08-30T09:48:05;15.68;;;10.07;;
52508;SDS011;38420;53.150;6.370;2023-08-30T09:50:34;14.90;;;10.10;;
52508;SDS011;38420;53.150;6.370;2023-08-30T09:53:07;16.38;;;10.20;;
52508;SDS011;38420;53.150;6.370;2023-08-30T09:55:35;12.48;;;9.20;;
52508;SDS011;38420;53.150;6.370;2023-08-30T09:58:04;15.25;;;10.38;;
52508;SDS011;38420;53.150;6.370;2023-08-30T10:00:30;19.48;;;9.90;;
52508;SDS011;38420;53.150;6.370;2023-08-30T10:02:58;13.10;;;9.45;;
52508;SDS011;38420;53.150;6.370;2023-08-30T10:05:25;14.60;;;10.07;;
52508;SDS011;38420;53.150;6.370;2023-08-30T10:07:52;15.55;;;10.68;;
52508;SDS011;38420;53.150;6.370;2023-08-30T10:10:18;14.90;;;9.88;;
52508;SDS011;38420;53.150;6.370;2023-08-30T10:12:45;13.07;;;9.93;;
52508;SDS011;38420;53.150;6.370;2023-08-30T10:15:11;12.65;;;9.55;;
52508;SDS011;38420;53.150;6.370;2023-08-30T10:17:38;12.02;;;8.80;;
52508;SDS011;38420;53.150;6.370;2023-08-30T10:20:05;13.45;;;9.38;;
52508;SDS011;38420;53.150;6.370;2023-08-30T10:22:32;15.95;;;9.70;;
52508;SDS011;38420;53.150;6.370;2023-08-30T10:25:02;14.68;;;9.93;;
52508;SDS011;38420;53.150;6.370;2023-08-30T10:27:34;12.90;;;9.57;;
52508;SDS011;38420;53.150;6.370;2023-08-30T10:30:02;14.98;;;9.05;;
52508;SDS011;38420;53.150;6.370;2023-08-30T10:32:30;10.65;;;7.82;;
52508;SDS011;38420;53.150;6.370;2023-08-30T10:35:00;12.93;;;7.97;;
52508;SDS011;38420;53.150;6.370;2023-08-30T10:37:28;10.48;;;7.45;;
52508;SDS011;38420;53.150;6.370;2023-08-30T10:39:59;9.68;;;6.95;;
52508;SDS011;38420;53.150;6.370;2023-08-30T10:42:26;12.00;;;7.03;;
52508;SDS011;38420;53.150;6.370;2023-08-30T10:45:01;10.55;;;6.78;;
52508;SDS011;38420;53.150;6.370;2023-08-30T10:47:30;11.48;;;7.43;;
52508;SDS011;38420;53.150;6.370;2023-08-30T10:49:58;10.57;;;6.72;;
52508;SDS011;38420;53.150;6.370;2023-08-30T10:52:29;9.43;;;6.55;;
52508;SDS011;38420;53.150;6.370;2023-08-30T10:55:04;11.63;;;6.72;;
52508;SDS011;38420;53.150;6.370;2023-08-30T10:57:30;10.13;;;6.45;;
52508;SDS011;38420;53.150;6.370;2023-08-30T11:02:36;8.73;;;5.55;;
52508;SDS011;38420;53.150;6.370;2023-08-30T11:05:04;8.02;;;6.00;;
52508;SDS011;38420;53.150;6.370;2023-08-30T11:07:32;8.68;;;5.18;;
52508;SDS011;38420;53.150;6.370;2023-08-30T11:09:57;8.25;;;4.85;;
52508;SDS011;38420;53.150;6.370;2023-08-30T11:12:23;7.13;;;4.88;;
52508;SDS011;38420;53.150;6.370;2023-08-30T11:14:54;6.40;;;4.65;;
52508;SDS011;38420;53.150;6.370;2023-08-30T11:17:20;7.43;;;5.10;;
52508;SDS011;38420;53.150;6.370;2023-08-30T11:19:48;7.25;;;4.93;;
52508;SDS011;38420;53.150;6.370;2023-08-30T11:22:16;9.38;;;5.18;;
52508;SDS011;38420;53.150;6.370;2023-08-30T11:24:42;8.38;;;4.95;;
52508;SDS011;38420;53.150;6.370;2023-08-30T11:27:09;5.80;;;3.92;;
52508;SDS011;38420;53.150;6.370;2023-08-30T11:29:35;6.50;;;3.80;;
52508;SDS011;38420;53.150;6.370;2023-08-30T11:32:00;6.28;;;3.92;;
52508;SDS011;38420;53.150;6.370;2023-08-30T11:34:26;6.15;;;4.22;;
52508;SDS011;38420;53.150;6.370;2023-08-30T11:36:52;6.43;;;4.05;;
52508;SDS011;38420;53.150;6.370;2023-08-30T11:39:18;5.97;;;3.92;;
52508;SDS011;38420;53.150;6.370;2023-08-30T11:41:44;8.27;;;5.10;;
52508;SDS011;38420;53.150;6.370;2023-08-30T11:44:11;5.97;;;4.00;;
52508;SDS011;38420;53.150;6.370;2023-08-30T11:46:37;9.57;;;4.78;;
52508;SDS011;38420;53.150;6.370;2023-08-30T11:49:02;6.97;;;4.80;;
52508;SDS011;38420;53.150;6.370;2023-08-30T11:51:28;7.43;;;4.78;;
52508;SDS011;38420;53.150;6.370;2023-08-30T11:53:54;5.45;;;4.22;;
52508;SDS011;38420;53.150;6.370;2023-08-30T11:56:21;5.80;;;4.30;;
52508;SDS011;38420;53.150;6.370;2023-08-30T11:58:48;7.57;;;4.75;;
52508;SDS011;38420;53.150;6.370;2023-08-30T12:01:13;7.88;;;4.97;;
52508;SDS011;38420;53.150;6.370;2023-08-30T12:03:39;7.25;;;4.90;;
52508;SDS011;38420;53.150;6.370;2023-08-30T12:06:09;8.05;;;5.90;;
52508;SDS011;38420;53.150;6.370;2023-08-30T12:08:39;7.72;;;5.65;;
52508;SDS011;38420;53.150;6.370;2023-08-30T12:11:05;7.72;;;5.75;;
52508;SDS011;38420;53.150;6.370;2023-08-30T12:13:33;7.82;;;5.90;;
52508;SDS011;38420;53.150;6.370;2023-08-30T12:16:00;10.45;;;5.72;;
52508;SDS011;38420;53.150;6.370;2023-08-30T12:18:28;8.15;;;6.30;;
52508;SDS011;38420;53.150;6.370;2023-08-30T12:20:58;9.30;;;6.97;;
52508;SDS011;38420;53.150;6.370;2023-08-30T12:23:25;9.68;;;6.97;;
52508;SDS011;38420;53.150;6.370;2023-08-30T12:26:05;11.27;;;7.60;;
52508;SDS011;38420;53.150;6.370;2023-08-30T12:28:33;10.63;;;7.63;;
52508;SDS011;38420;53.150;6.370;2023-08-30T12:31:00;12.15;;;7.95;;
52508;SDS011;38420;53.150;6.370;2023-08-30T12:33:26;11.95;;;9.20;;
52508;SDS011;38420;53.150;6.370;2023-08-30T12:35:53;13.27;;;8.90;;
52508;SDS011;38420;53.150;6.370;2023-08-30T12:38:20;12.80;;;9.68;;
52508;SDS011;38420;53.150;6.370;2023-08-30T12:40:47;13.45;;;10.52;;
52508;SDS011;38420;53.150;6.370;2023-08-30T12:43:15;14.63;;;10.63;;
52508;SDS011;38420;53.150;6.370;2023-08-30T12:45:41;14.93;;;10.20;;
52508;SDS011;38420;53.150;6.370;2023-08-30T12:48:08;14.82;;;11.05;;
52508;SDS011;38420;53.150;6.370;2023-08-30T12:50:35;13.48;;;10.30;;
52508;SDS011;38420;53.150;6.370;2023-08-30T12:53:02;15.25;;;10.90;;
52508;SDS011;38420;53.150;6.370;2023-08-30T12:55:31;18.55;;;12.40;;
52508;SDS011;38420;53.150;6.370;2023-08-30T12:57:57;16.27;;;12.35;;
52508;SDS011;38420;53.150;6.370;2023-08-30T13:00:23;15.82;;;11.88;;
52508;SDS011;38420;53.150;6.370;2023-08-30T13:02:49;17.17;;;13.23;;
52508;SDS011;38420;53.150;6.370;2023-08-30T13:05:15;17.80;;;13.05;;
52508;SDS011;38420;53.150;6.370;2023-08-30T13:07:41;16.45;;;13.30;;
52508;SDS011;38420;53.150;6.370;2023-08-30T13:10:07;19.77;;;14.63;;
52508;SDS011;38420;53.150;6.370;2023-08-30T13:12:33;18.15;;;13.85;;
52508;SDS011;38420;53.150;6.370;2023-08-30T13:14:59;17.52;;;12.73;;
52508;SDS011;38420;53.150;6.370;2023-08-30T13:17:25;17.50;;;12.82;;
52508;SDS011;38420;53.150;6.370;2023-08-30T13:19:50;16.30;;;12.48;;
52508;SDS011;38420;53.150;6.370;2023-08-30T13:22:16;17.40;;;12.10;;
52508;SDS011;38420;53.150;6.370;2023-08-30T13:24:43;18.15;;;12.55;;
52508;SDS011;38420;53.150;6.370;2023-08-30T13:27:09;15.30;;;11.25;;
52508;SDS011;38420;53.150;6.370;2023-08-30T13:29:35;15.25;;;11.93;;
52508;SDS011;38420;53.150;6.370;2023-08-30T13:32:01;15.88;;;12.45;;
52508;SDS011;38420;53.150;6.370;2023-08-30T13:34:26;14.05;;;11.00;;
52508;SDS011;38420;53.150;6.370;2023-08-30T13:36:52;14.82;;;11.00;;
52508;SDS011;38420;53.150;6.370;2023-08-30T13:39:18;18.65;;;13.30;;
52508;SDS011;38420;53.150;6.370;2023-08-30T13:41:45;13.95;;;11.32;;
52508;SDS011;38420;53.150;6.370;2023-08-30T13:44:12;16.17;;;11.45;;
52508;SDS011;38420;53.150;6.370;2023-08-30T13:46:38;12.88;;;10.20;;
52508;SDS011;38420;53.150;6.370;2023-08-30T13:49:04;14.07;;;10.27;;
52508;SDS011;38420;53.150;6.370;2023-08-30T13:51:30;13.73;;;10.63;;
52508;SDS011;38420;53.150;6.370;2023-08-30T13:53:56;14.73;;;11.32;;
52508;SDS011;38420;53.150;6.370;2023-08-30T13:56:21;14.65;;;11.88;;
52508;SDS011;38420;53.150;6.370;2023-08-30T13:58:48;15.10;;;11.38;;
52508;SDS011;38420;53.150;6.370;2023-08-30T14:01:14;17.38;;;13.27;;
52508;SDS011;38420;53.150;6.370;2023-08-30T14:03:40;15.27;;;11.38;;
52508;SDS011;38420;53.150;6.370;2023-08-30T14:06:05;18.83;;;13.85;;
52508;SDS011;38420;53.150;6.370;2023-08-30T14:08:31;18.33;;;12.70;;
52508;SDS011;38420;53.150;6.370;2023-08-30T14:10:57;18.40;;;14.13;;
52508;SDS011;38420;53.150;6.370;2023-08-30T14:13:23;20.75;;;13.30;;
52508;SDS011;38420;53.150;6.370;2023-08-30T14:15:49;18.08;;;13.45;;
52508;SDS011;38420;53.150;6.370;2023-08-30T14:18:15;17.75;;;12.73;;
52508;SDS011;38420;53.150;6.370;2023-08-30T14:20:41;17.90;;;13.15;;
52508;SDS011;38420;53.150;6.370;2023-08-30T14:23:07;17.58;;;12.10;;
52508;SDS011;38420;53.150;6.370;2023-08-30T14:25:33;15.48;;;12.00;;
52508;SDS011;38420;53.150;6.370;2023-08-30T14:27:59;19.92;;;13.63;;
52508;SDS011;38420;53.150;6.370;2023-08-30T14:30:25;16.20;;;12.43;;